Time;durP1;ratioP1;P1;durP2;ratioP2;P2;SDS_P1;SDS_P2;PMS_P1;PMS_P2;Temp;Humidity;BMP_temperature;BMP_pressure;BME280_temperature;BME280_humidity;BME280_pressure;Samples;Min_cycle;Max_cycle;Signal;HPM_P1;HPM_P2
2022/12/05 00:01:16;;;;;;;27.75;19.70;;;;;;;;;;4813519;29;20167;-70
2022/12/05 00:03:42;;;;;;;50.60;35.50;;;;;;;;;;4813779;29;20072;-70
2022/12/05 00:06:08;;;;;;;31.13;23.63;;;;;;;;;;4813625;29;20074;-70
2022/12/05 00:08:34;;;;;;;19.15;13.10;;;;;;;;;;4813338;29;20137;-70
2022/12/05 00:11:00;;;;;;;22.63;15.35;;;;;;;;;;4813198;29;20101;-70
2022/12/05 00:13:27;;;;;;;21.08;14.50;;;;;;;;;;4813960;29;20474;-70
2022/12/05 00:15:53;;;;;;;24.30;15.15;;;;;;;;;;4813396;29;20057;-70
2022/12/05 00:18:19;;;;;;;22.17;14.10;;;;;;;;;;4813336;29;20067;-70
2022/12/05 00:20:46;;;;;;;19.85;12.10;;;;;;;;;;4813820;29;20053;-70
2022/12/05 00:23:12;;;;;;;20.92;12.68;;;;;;;;;;4813129;29;20054;-70
2022/12/05 00:25:38;;;;;;;23.58;12.75;;;;;;;;;;4813282;29;20049;-70
2022/12/05 00:28:04;;;;;;;17.20;10.57;;;;;;;;;;4813034;29;20078;-70
2022/12/05 00:30:31;;;;;;;17.40;9.60;;;;;;;;;;4813016;29;20050;-70
2022/12/05 00:32:57;;;;;;;23.05;14.57;;;;;;;;;;4813268;29;20081;-70
2022/12/05 00:35:24;;;;;;;20.55;13.93;;;;;;;;;;4812963;29;20050;-70
2022/12/05 00:37:50;;;;;;;18.13;11.10;;;;;;;;;;4813043;29;20060;-70
2022/12/05 00:40:16;;;;;;;15.90;9.93;;;;;;;;;;4813189;29;20129;-70
2022/12/05 00:42:42;;;;;;;17.65;9.95;;;;;;;;;;4813017;29;20137;-70
2022/12/05 00:45:08;;;;;;;24.88;11.48;;;;;;;;;;4813179;29;20053;-70
2022/12/05 00:47:35;;;;;;;27.40;12.80;;;;;;;;;;4812450;29;20066;-70
2022/12/05 00:50:02;;;;;;;23.52;11.75;;;;;;;;;;4812524;29;20043;-70
2022/12/05 00:52:28;;;;;;;16.92;8.57;;;;;;;;;;4812389;29;20050;-70
2022/12/05 00:54:54;;;;;;;27.15;16.75;;;;;;;;;;4813090;29;20050;-70
2022/12/05 00:57:20;;;;;;;25.08;16.23;;;;;;;;;;4812784;29;20047;-70
2022/12/05 00:59:46;;;;;;;18.42;12.02;;;;;;;;;;4811887;29;20070;-70
2022/12/05 01:02:12;;;;;;;20.15;11.18;;;;;;;;;;4809619;29;20039;-70
2022/12/05 01:04:38;;;;;;;19.30;10.88;;;;;;;;;;4810164;29;20050;-70
2022/12/05 01:07:04;;;;;;;19.85;9.45;;;;;;;;;;4809693;29;20046;-70
2022/12/05 01:09:31;;;;;;;12.93;7.88;;;;;;;;;;4809568;29;20050;-70
2022/12/05 01:11:57;;;;;;;14.23;8.38;;;;;;;;;;4810019;29;20495;-70
2022/12/05 01:14:24;;;;;;;20.73;10.45;;;;;;;;;;4809412;29;20050;-70
2022/12/05 01:16:51;;;;;;;24.98;14.50;;;;;;;;;;4809688;29;20055;-70
2022/12/05 01:19:22;;;;;;;16.55;10.30;;;;;;;;;;4809893;29;20050;-70
2022/12/05 01:21:48;;;;;;;;;;;;;;;;;;4809895;29;20549;-70
2022/12/05 01:24:15;;;;;;;15.80;9.82;;;;;;;;;;4809549;29;19989;-70
2022/12/05 01:26:41;;;;;;;14.23;8.13;;;;;;;;;;4809543;29;20043;-70
2022/12/05 01:29:08;;;;;;;14.38;7.70;;;;;;;;;;4809211;29;20070;-70
2022/12/05 01:31:35;;;;;;;27.88;10.85;;;;;;;;;;4809135;29;20039;-70
2022/12/05 01:34:02;;;;;;;24.08;11.88;;;;;;;;;;4809337;29;20042;-70
2022/12/05 01:36:28;;;;;;;19.48;10.88;;;;;;;;;;4809229;29;20046;-70
2022/12/05 01:38:55;;;;;;;21.10;11.68;;;;;;;;;;4809345;29;20046;-70
2022/12/05 01:41:25;;;;;;;18.42;10.30;;;;;;;;;;4808990;29;20069;-70
2022/12/05 01:43:59;;;;;;;16.17;9.38;;;;;;;;;;4809295;29;20053;-70
2022/12/05 01:46:26;;;;;;;13.32;8.88;;;;;;;;;;4808824;29;20153;-70
2022/12/05 01:48:54;;;;;;;16.45;9.05;;;;;;;;;;4808833;29;20070;-70
2022/12/05 01:51:20;;;;;;;17.42;7.65;;;;;;;;;;4808855;29;20070;-71
2022/12/05 01:53:47;;;;;;;9.88;5.75;;;;;;;;;;4808867;29;20055;-70
2022/12/05 01:56:13;;;;;;;7.65;4.90;;;;;;;;;;4792974;29;20410;-70
2022/12/05 01:58:41;;;;;;;7.03;4.70;;;;;;;;;;4808739;29;20042;-70
2022/12/05 02:01:07;;;;;;;9.75;6.65;;;;;;;;;;4808964;29;20111;-70
2022/12/05 02:03:33;;;;;;;11.25;5.90;;;;;;;;;;4809249;29;20058;-70
2022/12/05 02:05:59;;;;;;;8.52;6.07;;;;;;;;;;4808615;29;20050;-71
2022/12/05 02:08:27;;;;;;;10.55;6.10;;;;;;;;;;4808418;29;20042;-70
2022/12/05 02:10:55;;;;;;;9.98;6.18;;;;;;;;;;4808950;29;20507;-70
2022/12/05 02:13:30;;;;;;;14.23;7.75;;;;;;;;;;4808193;29;20384;-70
2022/12/05 02:15:59;;;;;;;11.35;7.20;;;;;;;;;;4808717;29;20073;-70
2022/12/05 02:18:39;;;;;;;13.98;8.23;;;;;;;;;;4808384;29;20055;-71
2022/12/05 02:21:25;;;;;;;11.20;7.45;;;;;;;;;;4808568;29;20054;-70
2022/12/05 02:23:51;;;;;;;11.98;6.93;;;;;;;;;;4789065;29;20081;-71
2022/12/05 02:26:23;;;;;;;12.35;7.22;;;;;;;;;;4808715;29;20133;-71
2022/12/05 02:28:55;;;;;;;8.75;6.57;;;;;;;;;;4808714;29;20121;-71
2022/12/05 02:31:33;;;;;;;13.02;7.68;;;;;;;;;;4808585;29;20066;-71
2022/12/05 02:34:00;;;;;;;9.43;5.97;;;;;;;;;;4808013;29;20042;-71
2022/12/05 02:36:34;;;;;;;10.15;5.78;;;;;;;;;;4807872;29;20142;-71
2022/12/05 02:39:11;;;;;;;9.75;5.28;;;;;;;;;;4808376;29;20051;-71
2022/12/05 02:42:00;;;;;;;8.98;5.53;;;;;;;;;;4808292;29;20042;-71
2022/12/05 02:44:37;;;;;;;8.38;4.68;;;;;;;;;;4808501;29;20445;-71
2022/12/05 02:47:05;;;;;;;11.18;6.10;;;;;;;;;;4807902;29;20055;-71
2022/12/05 02:49:33;;;;;;;12.20;6.32;;;;;;;;;;4808403;29;20047;-71
2022/12/05 02:52:00;;;;;;;9.88;5.30;;;;;;;;;;4808492;29;20487;-71
2022/12/05 02:54:29;;;;;;;7.78;4.72;;;;;;;;;;4807941;29;20514;-71
2022/12/05 02:56:57;;;;;;;8.75;4.97;;;;;;;;;;4808267;29;20067;-71
2022/12/05 02:59:23;;;;;;;10.20;5.65;;;;;;;;;;4808189;29;20047;-71
2022/12/05 03:01:49;;;;;;;10.27;6.65;;;;;;;;;;4808502;29;20046;-71
2022/12/05 03:04:16;;;;;;;9.32;6.18;;;;;;;;;;4807888;29;20054;-71
2022/12/05 03:06:44;;;;;;;8.15;5.70;;;;;;;;;;4807959;29;20051;-70
2022/12/05 03:09:29;;;;;;;10.35;5.30;;;;;;;;;;4808321;29;20487;-71
2022/12/05 03:12:04;;;;;;;9.65;5.82;;;;;;;;;;4808022;29;20042;-71
2022/12/05 03:14:33;;;;;;;11.25;6.05;;;;;;;;;;4808269;29;20042;-71
2022/12/05 03:17:01;;;;;;;10.95;5.50;;;;;;;;;;4807715;29;20111;-70
2022/12/05 03:19:32;;;;;;;8.85;5.15;;;;;;;;;;4808011;29;20039;-70
2022/12/05 03:22:01;;;;;;;8.98;5.18;;;;;;;;;;4807767;29;20062;-71
2022/12/05 03:24:27;;;;;;;8.45;5.03;;;;;;;;;;4806997;29;20050;-70
2022/12/05 03:26:53;;;;;;;7.18;4.47;;;;;;;;;;4807548;29;20399;-70
2022/12/05 03:29:22;;;;;;;7.50;4.72;;;;;;;;;;4807837;29;20111;-70
2022/12/05 03:32:24;;;;;;;8.77;5.50;;;;;;;;;;4792110;29;20047;-70
2022/12/05 03:34:59;;;;;;;7.70;4.88;;;;;;;;;;4769322;30;20113;-70
2022/12/05 03:37:45;;;;;;;7.07;4.63;;;;;;;;;;4801857;29;20081;-70
2022/12/05 03:40:14;;;;;;;7.70;4.65;;;;;;;;;;4807908;29;20125;-71
2022/12/05 03:42:46;;;;;;;9.63;4.70;;;;;;;;;;4807476;29;20050;-70
2022/12/05 03:45:15;;;;;;;9.25;5.38;;;;;;;;;;4807776;29;20049;-71
2022/12/05 03:47:45;;;;;;;10.32;6.68;;;;;;;;;;4807365;29;20057;-71
2022/12/05 03:50:25;;;;;;;12.57;6.47;;;;;;;;;;4807872;29;20491;-71
2022/12/05 03:52:54;;;;;;;7.90;4.57;;;;;;;;;;4807183;29;20047;-70
2022/12/05 03:55:22;;;;;;;5.75;3.95;;;;;;;;;;4807295;29;20043;-71
2022/12/05 03:58:00;;;;;;;8.05;4.22;;;;;;;;;;4807240;29;20064;-71
2022/12/05 04:00:27;;;;;;;8.68;4.55;;;;;;;;;;4807214;29;20487;-71
2022/12/05 04:03:04;;;;;;;6.57;4.60;;;;;;;;;;4807278;29;20103;-71
2022/12/05 04:05:43;;;;;;;11.38;6.78;;;;;;;;;;4807727;29;20058;-70
2022/12/05 04:08:32;;;;;;;9.75;6.10;;;;;;;;;;4807335;29;20047;-71
2022/12/05 04:11:00;;;;;;;7.65;4.78;;;;;;;;;;4800034;29;20099;-71
2022/12/05 04:13:29;;;;;;;6.68;4.38;;;;;;;;;;4806758;29;20043;-71
2022/12/05 04:18:47;;;;;;;5.97;4.00;;;;;;;;;;4806651;29;20042;-70
2022/12/05 04:26:48;;;;;;;6.90;3.72;;;;;;;;;;4806806;29;20045;-70
2022/12/05 04:29:22;;;;;;;7.57;4.60;;;;;;;;;;4807156;29;20057;-70
2022/12/05 04:31:50;;;;;;;6.93;3.83;;;;;;;;;;4807245;29;20043;-70
2022/12/05 04:34:18;;;;;;;5.72;3.80;;;;;;;;;;4807262;29;20073;-70
2022/12/05 04:36:46;;;;;;;8.85;6.43;;;;;;;;;;4810209;29;20051;-70
2022/12/05 04:39:16;;;;;;;7.68;4.13;;;;;;;;;;4810345;29;20035;-70
2022/12/05 04:41:48;;;;;;;8.45;3.67;;;;;;;;;;4810212;29;20051;-70
2022/12/05 04:44:16;;;;;;;5.97;3.33;;;;;;;;;;4810273;29;20046;-70
2022/12/05 04:46:44;;;;;;;5.07;3.35;;;;;;;;;;4810250;29;20058;-70
2022/12/05 04:49:12;;;;;;;4.90;3.17;;;;;;;;;;4810379;29;20039;-70
2022/12/05 04:51:38;;;;;;;5.57;3.28;;;;;;;;;;4810741;29;20038;-70
2022/12/05 04:54:10;;;;;;;5.82;2.90;;;;;;;;;;4810059;29;20129;-70
2022/12/05 04:56:37;;;;;;;3.22;2.78;;;;;;;;;;4810687;29;20054;-70
2022/12/05 04:59:04;;;;;;;6.75;3.00;;;;;;;;;;4810858;29;20043;-70
2022/12/05 05:01:39;;;;;;;7.85;3.15;;;;;;;;;;4810015;29;20507;-70
2022/12/05 05:04:14;;;;;;;5.38;3.40;;;;;;;;;;4794115;29;20415;-70
2022/12/05 05:06:41;;;;;;;7.90;4.05;;;;;;;;;;4810129;29;20051;-71
2022/12/05 05:09:07;;;;;;;4.18;2.90;;;;;;;;;;4810168;29;20127;-71
2022/12/05 05:11:34;;;;;;;7.72;3.15;;;;;;;;;;4810165;29;20574;-71
2022/12/05 05:14:00;;;;;;;6.65;3.42;;;;;;;;;;4809893;29;20055;-71
2022/12/05 05:16:31;;;;;;;6.05;3.00;;;;;;;;;;4810319;29;20050;-71
2022/12/05 05:18:57;;;;;;;5.90;3.55;;;;;;;;;;4810221;29;20138;-71
2022/12/05 05:21:25;;;;;;;8.40;4.20;;;;;;;;;;4810323;29;20540;-71
2022/12/05 05:23:51;;;;;;;9.18;3.95;;;;;;;;;;4809870;29;20133;-71
2022/12/05 05:26:18;;;;;;;8.30;4.63;;;;;;;;;;4809852;29;20059;-70
2022/12/05 05:28:44;;;;;;;6.65;3.72;;;;;;;;;;4809802;29;20055;-71
2022/12/05 05:31:10;;;;;;;6.80;3.90;;;;;;;;;;4809717;29;20051;-71
2022/12/05 05:33:37;;;;;;;6.57;3.42;;;;;;;;;;4809648;29;20051;-71
2022/12/05 05:36:04;;;;;;;8.10;3.40;;;;;;;;;;4809419;29;20058;-70
2022/12/05 05:38:30;;;;;;;6.82;4.10;;;;;;;;;;4809499;29;20047;-71
2022/12/05 05:40:56;;;;;;;8.95;3.75;;;;;;;;;;4809618;29;20043;-71
2022/12/05 05:43:22;;;;;;;43.08;18.33;;;;;;;;;;4810362;29;20083;-71
2022/12/05 05:45:48;;;;;;;31.23;14.82;;;;;;;;;;4809117;29;20059;-71
2022/12/05 05:48:14;;;;;;;26.25;12.73;;;;;;;;;;4808538;29;20162;-71
2022/12/05 05:50:40;;;;;;;27.08;11.25;;;;;;;;;;4809097;29;20039;-71
2022/12/05 05:53:07;;;;;;;12.88;6.13;;;;;;;;;;4809398;29;20050;-71
2022/12/05 05:55:33;;;;;;;12.10;6.60;;;;;;;;;;4808752;29;20055;-70
2022/12/05 05:57:59;;;;;;;18.83;7.72;;;;;;;;;;4808719;29;20074;-71
2022/12/05 06:00:25;;;;;;;11.32;5.50;;;;;;;;;;4808664;29;20057;-70
2022/12/05 06:02:51;;;;;;;37.42;15.88;;;;;;;;;;4808378;29;20047;-70
2022/12/05 06:05:17;;;;;;;51.28;19.88;;;;;;;;;;4808592;29;20427;-70
2022/12/05 06:07:43;;;;;;;40.17;17.20;;;;;;;;;;4803924;29;20126;-70
2022/12/05 06:10:10;;;;;;;33.75;13.93;;;;;;;;;;4798854;29;20053;-70
2022/12/05 06:12:36;;;;;;;35.65;14.70;;;;;;;;;;4802625;29;20507;-70
2022/12/05 06:15:02;;;;;;;24.05;9.35;;;;;;;;;;4792575;29;20523;-70
2022/12/05 06:17:28;;;;;;;24.92;9.77;;;;;;;;;;4804783;29;20047;-70
2022/12/05 06:19:54;;;;;;;26.83;13.63;;;;;;;;;;4800587;29;20047;-70
2022/12/05 06:22:20;;;;;;;28.35;11.27;;;;;;;;;;4807846;29;20042;-70
2022/12/05 06:24:46;;;;;;;50.53;18.80;;;;;;;;;;4805553;29;20042;-70
2022/12/05 06:27:13;;;;;;;48.83;21.42;;;;;;;;;;4792150;29;20050;-70
2022/12/05 06:29:39;;;;;;;62.88;30.95;;;;;;;;;;4791942;29;20039;-70
2022/12/05 06:32:05;;;;;;;28.75;16.25;;;;;;;;;;4805731;29;20125;-69
2022/12/05 06:34:31;;;;;;;30.55;15.85;;;;;;;;;;4791442;29;20062;-70
2022/12/05 06:36:58;;;;;;;24.30;12.90;;;;;;;;;;4791973;29;20054;-69
2022/12/05 06:39:24;;;;;;;26.30;14.35;;;;;;;;;;4794375;29;20547;-70
2022/12/05 06:41:50;;;;;;;33.88;15.68;;;;;;;;;;4804323;29;20047;-70
2022/12/05 06:44:17;;;;;;;28.70;13.20;;;;;;;;;;4804206;29;20503;-70
2022/12/05 06:46:43;;;;;;;14.82;8.23;;;;;;;;;;4807409;29;20119;-70
2022/12/05 06:49:09;;;;;;;9.88;5.32;;;;;;;;;;4805779;29;20388;-70
2022/12/05 06:51:36;;;;;;;8.50;5.50;;;;;;;;;;4799996;29;20131;-71
2022/12/05 06:54:02;;;;;;;12.05;7.00;;;;;;;;;;4802775;29;20563;-69
2022/12/05 06:56:28;;;;;;;9.63;4.78;;;;;;;;;;4792597;29;20058;-69
2022/12/05 06:58:55;;;;;;;21.50;11.40;;;;;;;;;;4789657;29;20127;-70
2022/12/05 07:01:37;;;;;;;9.05;5.28;;;;;;;;;;4790050;29;20054;-70
2022/12/05 07:04:05;;;;;;;27.35;12.88;;;;;;;;;;4789454;29;20043;-70
2022/12/05 07:06:31;;;;;;;39.33;20.52;;;;;;;;;;4789565;30;20500;-70
2022/12/05 07:08:57;;;;;;;35.65;17.85;;;;;;;;;;4789564;30;20047;-70
2022/12/05 07:11:23;;;;;;;18.25;9.80;;;;;;;;;;4789811;30;20047;-70
2022/12/05 07:13:49;;;;;;;16.88;8.48;;;;;;;;;;4789454;29;20054;-70
2022/12/05 07:16:15;;;;;;;10.00;4.45;;;;;;;;;;4789814;29;20077;-70
2022/12/05 07:18:42;;;;;;;13.95;6.95;;;;;;;;;;4789608;29;20060;-70
2022/12/05 07:21:11;;;;;;;20.75;10.25;;;;;;;;;;4789634;30;20488;-70
2022/12/05 07:23:37;;;;;;;20.30;8.35;;;;;;;;;;4789664;30;20058;-70
2022/12/05 07:26:10;;;;;;;34.38;16.02;;;;;;;;;;4789310;30;20055;-70
2022/12/05 07:28:37;;;;;;;31.90;15.15;;;;;;;;;;4790083;30;20070;-70
2022/12/05 07:31:07;;;;;;;23.25;11.82;;;;;;;;;;4789550;30;20043;-70
2022/12/05 07:33:33;;;;;;;14.50;8.82;;;;;;;;;;4789922;30;20141;-70
2022/12/05 07:36:04;;;;;;;10.55;5.95;;;;;;;;;;4789491;30;20043;-70
2022/12/05 07:38:30;;;;;;;11.90;7.18;;;;;;;;;;4788897;29;20588;-70
2022/12/05 07:40:56;;;;;;;11.25;6.80;;;;;;;;;;4789431;30;20055;-70
2022/12/05 07:43:22;;;;;;;14.98;9.32;;;;;;;;;;4789558;29;20129;-70
2022/12/05 07:45:48;;;;;;;13.85;8.65;;;;;;;;;;4793530;29;20372;-70
2022/12/05 07:48:14;;;;;;;29.33;12.40;;;;;;;;;;4807388;29;20061;-70
2022/12/05 07:50:41;;;;;;;78.28;28.50;;;;;;;;;;4807601;29;20043;-70
2022/12/05 07:53:07;;;;;;;58.55;23.35;;;;;;;;;;4807554;29;20491;-70
2022/12/05 07:55:33;;;;;;;38.22;16.45;;;;;;;;;;4807539;29;20050;-70
2022/12/05 07:57:59;;;;;;;42.58;17.58;;;;;;;;;;4808102;29;20485;-70
2022/12/05 08:00:25;;;;;;;18.35;9.48;;;;;;;;;;4807692;29;20047;-70
2022/12/05 08:02:51;;;;;;;16.58;8.55;;;;;;;;;;4807615;29;20046;-70
2022/12/05 08:05:17;;;;;;;10.40;6.03;;;;;;;;;;4807518;29;20144;-70
2022/12/05 08:07:43;;;;;;;12.65;6.25;;;;;;;;;;4807361;29;20534;-70
2022/12/05 08:10:09;;;;;;;14.38;6.90;;;;;;;;;;4808876;29;20184;-70
2022/12/05 08:12:36;;;;;;;7.78;4.70;;;;;;;;;;4811151;29;20047;-70
2022/12/05 08:15:03;;;;;;;12.20;5.97;;;;;;;;;;4811784;29;20118;-70
2022/12/05 08:17:31;;;;;;;8.48;5.20;;;;;;;;;;4811046;29;20047;-70
2022/12/05 08:19:57;;;;;;;9.35;5.15;;;;;;;;;;4810993;29;20078;-70
2022/12/05 08:22:23;;;;;;;5.85;3.85;;;;;;;;;;4810971;29;20047;-70
2022/12/05 08:24:49;;;;;;;8.00;5.55;;;;;;;;;;4810918;29;20054;-70
2022/12/05 08:27:15;;;;;;;8.35;5.32;;;;;;;;;;4810682;29;20046;-70
2022/12/05 08:29:42;;;;;;;11.75;6.00;;;;;;;;;;4811339;29;20073;-70
2022/12/05 08:32:08;;;;;;;9.55;5.80;;;;;;;;;;4811008;29;20046;-70
2022/12/05 08:34:34;;;;;;;9.75;4.97;;;;;;;;;;4810397;29;20050;-70
2022/12/05 08:37:00;;;;;;;52.85;25.70;;;;;;;;;;4810489;29;20554;-70
2022/12/05 08:39:26;;;;;;;28.38;14.20;;;;;;;;;;4810433;29;20058;-70
2022/12/05 08:41:52;;;;;;;56.67;20.75;;;;;;;;;;4810107;29;20387;-70
2022/12/05 08:44:18;;;;;;;192.43;62.90;;;;;;;;;;4810282;29;20053;-70
2022/12/05 08:46:46;;;;;;;162.45;53.67;;;;;;;;;;4810692;29;20063;-70
2022/12/05 08:49:12;;;;;;;59.42;23.35;;;;;;;;;;4810238;29;20083;-70
2022/12/05 08:51:40;;;;;;;19.42;10.43;;;;;;;;;;4810169;29;20042;-70
2022/12/05 08:54:06;;;;;;;18.63;8.43;;;;;;;;;;4810229;29;20051;-70
2022/12/05 08:56:32;;;;;;;18.33;7.03;;;;;;;;;;4810519;29;20047;-69
2022/12/05 08:58:58;;;;;;;13.15;8.50;;;;;;;;;;4810084;29;20051;-70
2022/12/05 09:01:29;;;;;;;10.52;6.70;;;;;;;;;;4810009;29;20479;-70
2022/12/05 09:03:55;;;;;;;17.58;7.78;;;;;;;;;;4810055;29;20054;-70
2022/12/05 09:06:22;;;;;;;10.82;6.65;;;;;;;;;;4810326;29;20050;-70
2022/12/05 09:08:52;;;;;;;11.00;6.30;;;;;;;;;;4810194;29;20122;-70
2022/12/05 09:11:20;;;;;;;10.57;4.68;;;;;;;;;;4810191;29;20123;-70
2022/12/05 09:13:47;;;;;;;10.27;5.20;;;;;;;;;;4810024;29;20047;-69
2022/12/05 09:16:15;;;;;;;11.13;6.22;;;;;;;;;;4810044;29;20046;-70
2022/12/05 09:18:41;;;;;;;9.15;4.70;;;;;;;;;;4810294;29;20047;-70
2022/12/05 09:21:07;;;;;;;9.32;5.40;;;;;;;;;;4809068;29;20047;-70
2022/12/05 09:23:34;;;;;;;7.53;5.10;;;;;;;;;;4809469;29;20050;-69
2022/12/05 09:26:04;;;;;;;5.47;3.75;;;;;;;;;;4809709;29;20129;-69
2022/12/05 09:28:30;;;;;;;6.82;4.70;;;;;;;;;;4809838;29;20070;-69
2022/12/05 09:31:06;;;;;;;8.32;4.78;;;;;;;;;;4809532;29;20104;-69
2022/12/05 09:33:34;;;;;;;7.80;5.07;;;;;;;;;;4809999;29;20407;-70
2022/12/05 09:36:18;;;;;;;6.78;4.30;;;;;;;;;;4809730;29;20050;-70
2022/12/05 09:38:45;;;;;;;5.47;3.33;;;;;;;;;;4809275;29;20134;-69
2022/12/05 09:41:11;;;;;;;7.93;4.35;;;;;;;;;;4809392;29;20054;-69
2022/12/05 09:44:00;;;;;;;7.30;4.90;;;;;;;;;;4809307;29;20055;-69
2022/12/05 09:46:48;;;;;;;10.95;4.57;;;;;;;;;;4802093;29;20546;-70
2022/12/05 09:49:14;;;;;;;6.88;4.47;;;;;;;;;;4809113;29;20050;-69
2022/12/05 09:51:44;;;;;;;6.93;3.88;;;;;;;;;;4809223;29;20062;-69
2022/12/05 09:54:11;;;;;;;7.88;4.88;;;;;;;;;;4809107;29;20147;-69
2022/12/05 09:56:37;;;;;;;7.07;4.97;;;;;;;;;;4809066;29;20526;-69
2022/12/05 09:59:04;;;;;;;7.18;4.35;;;;;;;;;;4809053;29;20038;-69
2022/12/05 10:01:30;;;;;;;9.40;4.80;;;;;;;;;;4809120;29;20108;-69
2022/12/05 10:04:19;;;;;;;6.05;3.60;;;;;;;;;;4809011;29;20058;-69
2022/12/05 10:06:45;;;;;;;7.93;4.22;;;;;;;;;;4808908;29;20051;-69
2022/12/05 10:09:11;;;;;;;9.35;4.93;;;;;;;;;;4808639;29;20491;-69
2022/12/05 10:12:03;;;;;;;9.18;4.95;;;;;;;;;;4809016;29;20511;-69
2022/12/05 10:14:35;;;;;;;9.27;4.97;;;;;;;;;;4787670;29;20392;-69
2022/12/05 10:17:10;;;;;;;11.82;5.32;;;;;;;;;;4808663;29;20058;-69
2022/12/05 10:19:42;;;;;;;9.45;5.30;;;;;;;;;;4808604;29;20057;-69
2022/12/05 10:22:12;;;;;;;6.90;4.78;;;;;;;;;;4808632;29;20051;-69
2022/12/05 10:24:42;;;;;;;8.98;4.50;;;;;;;;;;4808933;29;20046;-69
2022/12/05 10:27:14;;;;;;;7.60;4.53;;;;;;;;;;4808522;29;20054;-69
2022/12/05 10:29:45;;;;;;;8.23;4.75;;;;;;;;;;4808517;29;20073;-69
2022/12/05 10:32:19;;;;;;;6.57;4.13;;;;;;;;;;4808226;29;20062;-69
2022/12/05 10:34:46;;;;;;;8.68;4.10;;;;;;;;;;4808644;29;20059;-69
2022/12/05 10:37:19;;;;;;;4.85;3.28;;;;;;;;;;4808218;29;20047;-69
2022/12/05 10:39:46;;;;;;;6.13;3.70;;;;;;;;;;4808869;29;20050;-69
2022/12/05 10:42:14;;;;;;;4.63;3.10;;;;;;;;;;4808505;29;20054;-69
2022/12/05 10:44:40;;;;;;;3.40;2.50;;;;;;;;;;4808241;29;20051;-69
2022/12/05 10:47:07;;;;;;;6.13;3.10;;;;;;;;;;4807901;29;20147;-69
2022/12/05 10:49:34;;;;;;;4.75;2.92;;;;;;;;;;4791935;29;20457;-69
2022/12/05 10:52:00;;;;;;;5.82;3.40;;;;;;;;;;4807699;29;20104;-69
2022/12/05 10:54:30;;;;;;;5.00;3.83;;;;;;;;;;4808034;29;20089;-69
2022/12/05 10:56:56;;;;;;;4.72;3.28;;;;;;;;;;4808583;29;20046;-69
2022/12/05 10:59:24;;;;;;;5.95;3.60;;;;;;;;;;4808017;29;20054;-69
2022/12/05 11:01:55;;;;;;;2.75;2.40;;;;;;;;;;4808172;29;20050;-69
2022/12/05 11:04:39;;;;;;;3.30;2.30;;;;;;;;;;4807679;29;20087;-69
2022/12/05 11:07:05;;;;;;;3.50;2.78;;;;;;;;;;4807727;29;20080;-69
2022/12/05 11:09:32;;;;;;;3.60;2.70;;;;;;;;;;4807576;29;20043;-69
2022/12/05 11:12:14;;;;;;;7.10;2.78;;;;;;;;;;4808099;29;20046;-69
2022/12/05 11:14:40;;;;;;;4.05;2.47;;;;;;;;;;4808270;29;20047;-69
2022/12/05 11:17:22;;;;;;;3.08;2.42;;;;;;;;;;4807948;29;20055;-69
2022/12/05 11:19:48;;;;;;;4.47;2.45;;;;;;;;;;4808315;29;20043;-69
2022/12/05 11:22:16;;;;;;;3.97;2.70;;;;;;;;;;4807675;29;20056;-69
2022/12/05 11:24:42;;;;;;;3.22;2.47;;;;;;;;;;4807958;29;20078;-69
2022/12/05 11:27:18;;;;;;;3.22;2.20;;;;;;;;;;4807446;29;20047;-69
2022/12/05 11:29:53;;;;;;;5.90;2.78;;;;;;;;;;4807615;29;20066;-69
2022/12/05 11:32:20;;;;;;;8.77;2.25;;;;;;;;;;4807717;29;20054;-69
2022/12/05 11:34:52;;;;;;;9.15;2.15;;;;;;;;;;4807175;29;20047;-69
2022/12/05 11:37:22;;;;;;;8.23;1.70;;;;;;;;;;4807491;29;20054;-69
2022/12/05 11:39:48;;;;;;;14.35;2.20;;;;;;;;;;4807183;29;20042;-69
2022/12/05 11:42:28;;;;;;;15.57;2.42;;;;;;;;;;4807126;29;20047;-69
2022/12/05 11:45:00;;;;;;;14.15;2.08;;;;;;;;;;4807478;29;20049;-70
2022/12/05 11:47:44;;;;;;;13.20;3.30;;;;;;;;;;4806395;29;20112;-69
2022/12/05 11:50:24;;;;;;;11.90;2.28;;;;;;;;;;4806549;29;20051;-69
2022/12/05 11:52:55;;;;;;;14.70;2.30;;;;;;;;;;4806981;29;20086;-68
2022/12/05 11:55:23;;;;;;;14.40;2.10;;;;;;;;;;4808035;29;20046;-69
2022/12/05 11:57:49;;;;;;;8.77;2.08;;;;;;;;;;4794784;29;20045;-69
2022/12/05 12:00:31;;;;;;;6.07;1.75;;;;;;;;;;4794026;29;20059;-69
2022/12/05 12:03:16;;;;;;;9.35;2.30;;;;;;;;;;4790394;29;20051;-69
2022/12/05 12:05:48;;;;;;;11.27;2.45;;;;;;;;;;4806791;29;20042;-69
2022/12/05 12:08:27;;;;;;;8.20;1.70;;;;;;;;;;4806256;29;20051;-68
2022/12/05 12:10:59;;;;;;;5.10;1.77;;;;;;;;;;4805275;29;20507;-69
2022/12/05 12:13:25;;;;;;;1.88;1.50;;;;;;;;;;4806532;29;20054;-69
2022/12/05 12:15:51;;;;;;;4.43;1.98;;;;;;;;;;4806200;29;20575;-69
2022/12/05 12:18:34;;;;;;;4.47;1.70;;;;;;;;;;4804842;29;20038;-69
2022/12/05 12:21:08;;;;;;;2.65;1.38;;;;;;;;;;4804653;29;20588;-68
2022/12/05 12:23:53;;;;;;;3.25;1.30;;;;;;;;;;4786056;29;20051;-68
2022/12/05 12:26:34;;;;;;;4.80;1.42;;;;;;;;;;4803126;29;20142;-68
2022/12/05 12:29:26;;;;;;;4.15;1.20;;;;;;;;;;4805509;29;20046;-68
2022/12/05 12:32:13;;;;;;;5.68;1.48;;;;;;;;;;4784144;29;20129;-68
2022/12/05 12:34:39;;;;;;;5.63;3.33;;;;;;;;;;4801886;29;20601;-68
2022/12/05 12:37:16;;;;;;;4.60;4.00;;;;;;;;;;4808993;29;20062;-68
2022/12/05 12:39:52;;;;;;;3.58;1.50;;;;;;;;;;4823981;29;20513;-68
2022/12/05 12:42:27;;;;;;;4.43;4.03;;;;;;;;;;4808827;29;20092;-68
2022/12/05 12:45:23;;;;;;;1.55;1.38;;;;;;;;;;4805311;29;20093;-68
2022/12/05 12:47:52;;;;;;;1.60;1.10;;;;;;;;;;4757347;29;20072;-67
2022/12/05 12:50:23;;;;;;;1.55;0.90;;;;;;;;;;4799389;29;20102;-68
2022/12/05 12:53:02;;;;;;;1.33;1.13;;;;;;;;;;4805784;29;20047;-69
2022/12/05 12:55:54;;;;;;;1.15;0.88;;;;;;;;;;4804464;29;20546;-69
2022/12/05 12:58:20;;;;;;;1.45;1.25;;;;;;;;;;4774539;29;20043;-69
2022/12/05 13:00:58;;;;;;;2.47;1.00;;;;;;;;;;4791213;30;20531;-68
2022/12/05 13:03:28;;;;;;;1.30;1.13;;;;;;;;;;4794144;29;20054;-69
2022/12/05 13:05:59;;;;;;;1.50;1.00;;;;;;;;;;4808399;29;20039;-68
2022/12/05 13:08:34;;;;;;;1.42;0.95;;;;;;;;;;4807028;29;20081;-68
2022/12/05 13:11:03;;;;;;;1.67;1.10;;;;;;;;;;4808296;29;20046;-68
2022/12/05 13:13:38;;;;;;;2.25;1.30;;;;;;;;;;4807883;29;20059;-68
2022/12/05 13:16:06;;;;;;;1.35;1.10;;;;;;;;;;4806474;29;20051;-68
2022/12/05 13:18:32;;;;;;;3.17;2.35;;;;;;;;;;4808353;29;20050;-68
2022/12/05 13:21:00;;;;;;;2.42;1.50;;;;;;;;;;4806706;29;20117;-68
2022/12/05 13:23:31;;;;;;;1.33;1.23;;;;;;;;;;4805648;29;20059;-68
2022/12/05 13:25:57;;;;;;;;;;;;;;;;;;4797204;29;20158;-68
2022/12/05 13:28:26;;;;;;;2.20;1.23;;;;;;;;;;4791049;29;19953;-68
2022/12/05 13:30:56;;;;;;;3.22;1.52;;;;;;;;;;4803045;29;20038;-68
2022/12/05 13:33:24;;;;;;;1.25;1.02;;;;;;;;;;4805378;29;20054;-68
2022/12/05 13:44:32;;;;;;;5.80;1.38;;;;;;;;;;4793542;29;20524;-68
2022/12/05 13:46:59;;;;;;;3.05;1.30;;;;;;;;;;4808356;29;20058;-68
2022/12/05 13:49:45;;;;;;;1.98;1.40;;;;;;;;;;4808781;29;20042;-68
2022/12/05 13:52:18;;;;;;;3.78;1.38;;;;;;;;;;4801333;29;20051;-68
2022/12/05 13:54:52;;;;;;;2.10;1.50;;;;;;;;;;4809299;29;20055;-68
2022/12/05 13:57:37;;;;;;;3.28;1.35;;;;;;;;;;4798411;29;20051;-68
2022/12/05 14:00:09;;;;;;;1.52;1.30;;;;;;;;;;4806312;29;20050;-68
2022/12/05 14:02:44;;;;;;;1.85;1.33;;;;;;;;;;4803379;29;20074;-68
2022/12/05 14:05:13;;;;;;;3.67;1.30;;;;;;;;;;4807268;29;20047;-68
2022/12/05 14:07:42;;;;;;;3.05;1.15;;;;;;;;;;4805667;29;20047;-68
2022/12/05 14:10:11;;;;;;;1.83;1.48;;;;;;;;;;4800774;29;20092;-68
2022/12/05 14:12:45;;;;;;;1.92;1.23;;;;;;;;;;4799999;29;20051;-68
2022/12/05 14:15:27;;;;;;;1.98;1.30;;;;;;;;;;4802115;29;20062;-69
2022/12/05 14:18:17;;;;;;;1.98;1.15;;;;;;;;;;4804124;29;20050;-68
2022/12/05 14:20:55;;;;;;;1.50;1.35;;;;;;;;;;4775834;29;20510;-68
2022/12/05 14:23:35;;;;;;;2.20;1.00;;;;;;;;;;4800619;29;20046;-68
2022/12/05 14:26:20;;;;;;;4.32;1.45;;;;;;;;;;4806985;29;20621;-69
2022/12/05 14:28:55;;;;;;;3.88;1.42;;;;;;;;;;4807720;29;20192;-69
2022/12/05 14:31:41;;;;;;;3.05;2.10;;;;;;;;;;4807991;29;20050;-69
2022/12/05 14:34:23;;;;;;;2.28;1.48;;;;;;;;;;4778077;29;20062;-69
2022/12/05 14:36:54;;;;;;;1.30;1.20;;;;;;;;;;4807230;29;20039;-69
2022/12/05 14:39:21;;;;;;;2.13;1.83;;;;;;;;;;4805899;29;20047;-69
2022/12/05 14:41:55;;;;;;;2.00;1.60;;;;;;;;;;4791185;29;20585;-69
2022/12/05 14:44:21;;;;;;;3.30;1.63;;;;;;;;;;4799030;29;20059;-69
2022/12/05 14:46:47;;;;;;;2.25;1.17;;;;;;;;;;4805596;29;20054;-69
2022/12/05 14:49:37;;;;;;;2.95;1.15;;;;;;;;;;4806762;29;20077;-72
2022/12/05 14:52:10;;;;;;;1.38;1.20;;;;;;;;;;4764371;30;20050;-69
2022/12/05 14:54:37;;;;;;;2.03;1.55;;;;;;;;;;4789548;30;20047;-69
2022/12/05 14:57:08;;;;;;;4.07;1.40;;;;;;;;;;4790329;30;20051;-69
2022/12/05 14:59:43;;;;;;;2.47;1.85;;;;;;;;;;4789788;30;20059;-69
2022/12/05 15:02:15;;;;;;;2.92;1.73;;;;;;;;;;4790466;30;20495;-69
2022/12/05 15:04:52;;;;;;;2.53;1.30;;;;;;;;;;4789980;30;20054;-69
2022/12/05 15:07:26;;;;;;;5.18;1.73;;;;;;;;;;4789912;30;20150;-69
2022/12/05 15:09:55;;;;;;;10.15;3.15;;;;;;;;;;4789903;30;20051;-69